createdAt,value
2018-10-11T00:00:27.913Z,15.94
2018-10-11T00:01:08.501Z,15.94
2018-10-11T00:01:49.073Z,15.92
2018-10-11T00:02:29.643Z,15.97
2018-10-11T00:03:10.217Z,15.94
2018-10-11T00:03:50.780Z,16
2018-10-11T00:04:31.348Z,15.91
2018-10-11T00:05:11.905Z,15.98
2018-10-11T00:05:52.480Z,15.92
2018-10-11T00:06:33.038Z,15.98
2018-10-11T00:07:13.628Z,15.94
2018-10-11T00:07:54.204Z,15.97
2018-10-11T00:08:34.770Z,15.94
2018-10-11T00:09:15.327Z,15.83
2018-10-11T00:09:55.944Z,15.97
2018-10-11T00:10:36.509Z,15.98
2018-10-11T00:11:17.078Z,15.92
2018-10-11T00:11:57.667Z,15.86
2018-10-11T00:12:38.236Z,15.9
2018-10-11T00:13:18.866Z,15.83
2018-10-11T00:13:59.380Z,15.9
2018-10-11T00:14:39.951Z,15.84
2018-10-11T00:15:20.516Z,15.9
2018-10-11T00:16:01.090Z,15.92
2018-10-11T00:16:41.674Z,15.91
2018-10-11T00:17:22.221Z,15.92
2018-10-11T00:18:02.773Z,15.86
2018-10-11T00:18:43.339Z,15.88
2018-10-11T00:19:23.893Z,15.86
2018-10-11T00:20:04.597Z,15.84
2018-10-11T00:20:45.044Z,15.91
2018-10-11T00:21:25.594Z,15.77
2018-10-11T00:22:06.178Z,15.83
2018-10-11T00:22:46.744Z,15.83
2018-10-11T00:23:27.298Z,15.88
2018-10-11T00:24:07.883Z,15.82
2018-10-11T00:24:48.437Z,15.82
2018-10-11T00:25:29.026Z,15.8
2018-10-11T00:26:09.581Z,15.82
2018-10-11T00:26:50.177Z,15.84
2018-10-11T00:27:30.755Z,15.82
2018-10-11T00:28:11.341Z,15.77
2018-10-11T00:28:51.991Z,15.82
2018-10-11T00:29:32.556Z,15.76
2018-10-11T00:30:13.123Z,15.82
2018-10-11T00:30:53.713Z,15.82
2018-10-11T00:31:34.267Z,15.7
2018-10-11T00:32:14.858Z,15.62
2018-10-11T00:32:55.417Z,15.67
2018-10-11T00:33:35.984Z,15.64
2018-10-11T00:34:16.575Z,15.61
2018-10-11T00:34:57.163Z,15.7
2018-10-11T00:35:37.708Z,15.64
2018-10-11T00:36:18.294Z,15.65
2018-10-11T00:36:58.875Z,15.64
2018-10-11T00:37:39.463Z,15.72
2018-10-11T00:38:20.020Z,15.68
2018-10-11T00:39:00.614Z,15.64
2018-10-11T00:39:41.208Z,15.61
2018-10-11T00:40:21.762Z,15.58
2018-10-11T00:41:02.325Z,15.59
2018-10-11T00:41:42.886Z,15.61
2018-10-11T00:42:23.461Z,15.57
2018-10-11T00:43:04.062Z,15.55
2018-10-11T00:43:44.633Z,15.61
2018-10-11T00:44:25.194Z,15.58
2018-10-11T00:45:05.765Z,15.57
2018-10-11T00:45:46.334Z,15.59
2018-10-11T00:46:26.895Z,15.62
2018-10-11T00:47:07.455Z,15.61
2018-10-11T00:47:48.020Z,15.59
2018-10-11T00:48:28.588Z,15.59
2018-10-11T00:49:09.145Z,15.58
2018-10-11T00:49:49.698Z,15.59
2018-10-11T00:50:30.260Z,15.65
2018-10-11T00:51:10.834Z,15.57
2018-10-11T00:51:51.424Z,15.58
2018-10-11T00:52:31.978Z,15.58
2018-10-11T00:53:12.578Z,15.57
2018-10-11T00:53:53.179Z,15.61
2018-10-11T00:54:33.754Z,15.61
2018-10-11T00:55:14.357Z,15.58
2018-10-11T00:55:54.918Z,15.62
2018-10-11T00:56:35.488Z,15.61
2018-10-11T00:57:16.031Z,15.49
2018-10-11T00:57:56.596Z,15.58
2018-10-11T00:58:37.151Z,15.57
2018-10-11T00:59:17.719Z,15.57
2018-10-11T00:59:58.275Z,15.49
2018-10-11T01:00:38.849Z,15.54
2018-10-11T01:01:19.409Z,15.59
2018-10-11T01:01:59.989Z,15.58
2018-10-11T01:02:40.552Z,15.59
2018-10-11T01:03:21.110Z,15.57
2018-10-11T01:04:01.666Z,15.55
2018-10-11T01:04:42.225Z,15.52
2018-10-11T01:05:22.779Z,15.52
2018-10-11T01:06:03.356Z,15.54
2018-10-11T01:06:43.914Z,15.47
2018-10-11T01:07:24.487Z,15.54
2018-10-11T01:08:05.057Z,15.54
2018-10-11T01:08:45.620Z,15.54
2018-10-11T01:09:26.316Z,15.52
2018-10-11T01:10:06.822Z,15.51
2018-10-11T01:10:47.308Z,15.54
2018-10-11T01:11:27.897Z,15.49
2018-10-11T01:12:08.460Z,15.52
2018-10-11T01:12:49.017Z,15.47
2018-10-11T01:13:29.563Z,15.46
2018-10-11T01:14:10.149Z,15.47
2018-10-11T01:14:50.743Z,15.44
2018-10-11T01:15:31.291Z,15.4
2018-10-11T01:16:11.863Z,15.4
2018-10-11T01:16:52.437Z,15.36
2018-10-11T01:17:33.013Z,15.35
2018-10-11T01:18:13.567Z,15.36
2018-10-11T01:18:54.123Z,15.31
2018-10-11T01:19:34.677Z,15.35
2018-10-11T01:20:15.245Z,15.33
2018-10-11T01:20:55.835Z,15.35
2018-10-11T01:21:36.386Z,15.27
2018-10-11T01:22:16.950Z,15.27
2018-10-11T01:22:57.551Z,15.31
2018-10-11T01:23:38.147Z,15.29
2018-10-11T01:24:18.675Z,15.28
2018-10-11T01:24:59.257Z,15.31
2018-10-11T01:25:39.851Z,15.28
2018-10-11T01:26:20.444Z,15.28
2018-10-11T01:27:00.983Z,15.25
2018-10-11T01:27:41.546Z,15.25
2018-10-11T01:28:22.098Z,15.33
2018-10-11T01:29:02.658Z,15.33
2018-10-11T01:29:43.303Z,15.24
2018-10-11T01:30:23.807Z,15.28
2018-10-11T01:31:04.368Z,15.27
2018-10-11T01:31:44.924Z,15.25
2018-10-11T01:32:25.479Z,15.29
2018-10-11T01:33:06.050Z,15.28
2018-10-11T01:33:46.609Z,15.25
2018-10-11T01:34:27.185Z,15.31
2018-10-11T01:35:07.791Z,15.31
2018-10-11T01:35:48.374Z,15.29
2018-10-11T01:36:28.934Z,15.25
2018-10-11T01:37:09.554Z,15.29
2018-10-11T01:37:50.104Z,15.21
2018-10-11T01:38:30.667Z,15.29
2018-10-11T01:39:11.257Z,15.28
2018-10-11T01:39:51.824Z,15.24
2018-10-11T01:40:32.397Z,15.33
2018-10-11T01:41:12.975Z,15.31
2018-10-11T01:41:53.546Z,15.24
2018-10-11T01:42:34.157Z,15.29
2018-10-11T01:43:14.737Z,15.28
2018-10-11T01:43:55.298Z,15.24
2018-10-11T01:44:35.849Z,15.14
2018-10-11T01:45:16.399Z,15.27
2018-10-11T01:45:57.027Z,15.33
2018-10-11T01:46:37.575Z,15.22
2018-10-11T01:47:18.149Z,15.27
2018-10-11T01:47:58.713Z,15.14
2018-10-11T01:48:39.265Z,15.21
2018-10-11T01:49:19.817Z,15.18
2018-10-11T01:50:00.372Z,15.25
2018-10-11T01:50:40.937Z,15.18
2018-10-11T01:51:21.518Z,15.19
2018-10-11T01:52:02.077Z,15.15
2018-10-11T01:52:42.635Z,15.17
2018-10-11T01:53:23.195Z,15.24
2018-10-11T01:54:03.750Z,15.25
2018-10-11T01:54:44.312Z,15.17
2018-10-11T01:55:24.867Z,15.25
2018-10-11T01:56:05.427Z,15.18
2018-10-11T01:56:46.041Z,15.1
2018-10-11T01:57:26.549Z,15.11
2018-10-11T01:58:07.109Z,15.21
2018-10-11T01:58:47.680Z,15.22
2018-10-11T01:59:28.247Z,15.22
2018-10-11T02:00:08.838Z,15.11
2018-10-11T02:00:49.401Z,15.11
2018-10-11T02:01:29.979Z,15.24
2018-10-11T02:02:10.529Z,15.15
2018-10-11T02:02:51.097Z,15.11
2018-10-11T02:03:31.663Z,15.11
2018-10-11T02:04:12.250Z,15.09
2018-10-11T02:04:52.830Z,15.11
2018-10-11T02:05:33.411Z,15.14
2018-10-11T02:06:13.981Z,15.06
2018-10-11T02:06:54.540Z,15.11
2018-10-11T02:07:35.100Z,15.11
2018-10-11T02:08:15.662Z,15.09
2018-10-11T02:08:56.249Z,15.07
2018-10-11T02:09:36.974Z,15.15
2018-10-11T02:10:17.384Z,15.11
2018-10-11T02:10:57.944Z,15.1
2018-10-11T02:11:38.518Z,15.1
2018-10-11T02:12:19.068Z,15.15
2018-10-11T02:12:59.622Z,15.11
2018-10-11T02:13:40.194Z,15.04
2018-10-11T02:14:20.769Z,15.06
2018-10-11T02:15:01.377Z,15.11
2018-10-11T02:15:41.959Z,15.04
2018-10-11T02:16:22.531Z,15.06
2018-10-11T02:17:03.145Z,15
2018-10-11T02:17:43.705Z,15.07
2018-10-11T02:18:24.269Z,15.03
2018-10-11T02:19:04.833Z,15.02
2018-10-11T02:19:45.400Z,15
2018-10-11T02:20:26.004Z,14.99
2018-10-11T02:21:06.554Z,15.02
2018-10-11T02:21:47.105Z,14.97
2018-10-11T02:22:27.686Z,14.94
2018-10-11T02:23:08.300Z,14.99
2018-10-11T02:23:48.855Z,14.97
2018-10-11T02:24:29.420Z,14.99
2018-10-11T02:25:09.995Z,14.99
2018-10-11T02:25:50.542Z,14.96
2018-10-11T02:26:31.155Z,14.84
2018-10-11T02:27:11.736Z,14.89
2018-10-11T02:27:52.297Z,14.88
2018-10-11T02:28:32.857Z,14.94
2018-10-11T02:29:13.455Z,14.89
2018-10-11T02:29:54.028Z,14.89
2018-10-11T02:30:34.607Z,14.86
2018-10-11T02:31:15.240Z,14.88
2018-10-11T02:31:55.850Z,14.89
2018-10-11T02:32:36.392Z,14.91
2018-10-11T02:33:16.949Z,14.91
2018-10-11T02:33:57.549Z,14.89
2018-10-11T02:34:38.111Z,14.89
2018-10-11T02:35:18.733Z,14.92
2018-10-11T02:35:59.290Z,14.88
2018-10-11T02:36:39.896Z,14.81
2018-10-11T02:37:20.444Z,14.88
2018-10-11T02:38:01.032Z,14.78
2018-10-11T02:38:41.600Z,14.78
2018-10-11T02:39:22.170Z,14.84
2018-10-11T02:40:02.747Z,14.81
2018-10-11T02:40:43.338Z,14.84
2018-10-11T02:41:23.906Z,14.81
2018-10-11T02:42:04.476Z,14.81
2018-10-11T02:42:45.027Z,14.78
2018-10-11T02:43:25.591Z,14.68
2018-10-11T02:44:06.159Z,14.69
2018-10-11T02:44:46.730Z,14.72
2018-10-11T02:45:27.320Z,14.7
2018-10-11T02:46:07.882Z,14.69
2018-10-11T02:46:48.480Z,14.77
2018-10-11T02:47:29.064Z,14.66
2018-10-11T02:48:09.630Z,14.7
2018-10-11T02:48:50.184Z,14.68
2018-10-11T02:49:30.766Z,14.7
2018-10-11T02:50:11.332Z,14.65
2018-10-11T02:50:51.912Z,14.7
2018-10-11T02:51:32.470Z,14.7
2018-10-11T02:52:13.022Z,14.72
2018-10-11T02:52:53.562Z,14.68
2018-10-11T02:53:34.152Z,14.7
2018-10-11T02:54:14.746Z,14.69
2018-10-11T02:54:55.321Z,14.68
2018-10-11T02:55:35.888Z,14.7
2018-10-11T02:56:16.456Z,14.66
2018-10-11T02:56:56.996Z,14.72
2018-10-11T02:57:37.663Z,14.7
2018-10-11T02:58:18.207Z,14.66
2018-10-11T02:58:58.815Z,14.7
2018-10-11T02:59:39.398Z,14.65
2018-10-11T03:00:19.959Z,14.66
2018-10-11T03:01:00.558Z,14.68
2018-10-11T03:01:41.135Z,14.65
2018-10-11T03:02:21.733Z,14.65
2018-10-11T03:03:02.325Z,14.7
2018-10-11T03:03:42.906Z,14.63
2018-10-11T03:04:23.443Z,14.65
2018-10-11T03:05:04.006Z,14.58
2018-10-11T03:05:44.572Z,14.59
2018-10-11T03:06:25.167Z,14.55
2018-10-11T03:07:05.743Z,14.54
2018-10-11T03:07:46.297Z,14.51
2018-10-11T03:08:26.865Z,14.5
2018-10-11T03:09:07.445Z,14.51
2018-10-11T03:09:48.055Z,14.58
2018-10-11T03:10:28.613Z,14.54
2018-10-11T03:11:09.171Z,14.5
2018-10-11T03:11:49.726Z,14.65
2018-10-11T03:12:30.288Z,14.62
2018-10-11T03:13:10.879Z,14.5
2018-10-11T03:13:51.458Z,14.5
2018-10-11T03:14:32.009Z,14.59
2018-10-11T03:15:12.574Z,14.63
2018-10-11T03:15:53.227Z,14.51
2018-10-11T03:16:33.756Z,14.5
2018-10-11T03:17:14.315Z,14.63
2018-10-11T03:17:54.869Z,14.63
2018-10-11T03:18:35.424Z,14.44
2018-10-11T03:19:15.970Z,14.51
2018-10-11T03:19:56.546Z,14.51
2018-10-11T03:20:37.136Z,14.54
2018-10-11T03:21:17.682Z,14.55
2018-10-11T03:21:58.258Z,14.55
2018-10-11T03:22:38.805Z,14.5
2018-10-11T03:23:19.371Z,14.54
2018-10-11T03:23:59.996Z,14.59
2018-10-11T03:24:40.582Z,14.47
2018-10-11T03:25:21.128Z,14.47
2018-10-11T03:26:01.690Z,14.51
2018-10-11T03:26:42.251Z,14.53
2018-10-11T03:27:22.830Z,14.55
2018-10-11T03:28:03.395Z,14.51
2018-10-11T03:28:43.956Z,14.51
2018-10-11T03:29:24.532Z,14.5
2018-10-11T03:30:05.090Z,14.5
2018-10-11T03:30:45.645Z,14.5
2018-10-11T03:31:26.203Z,14.48
2018-10-11T03:32:06.769Z,14.55
2018-10-11T03:32:47.342Z,14.51
2018-10-11T03:33:27.959Z,14.51
2018-10-11T03:34:08.513Z,14.48
2018-10-11T03:34:49.129Z,14.5
2018-10-11T03:35:29.752Z,14.58
2018-10-11T03:36:10.221Z,14.41
2018-10-11T03:36:50.810Z,14.48
2018-10-11T03:37:31.361Z,14.41
2018-10-11T03:38:11.936Z,14.43
2018-10-11T03:38:52.551Z,14.37
2018-10-11T03:39:33.105Z,14.41
2018-10-11T03:40:13.659Z,14.36
2018-10-11T03:40:54.213Z,14.36
2018-10-11T03:41:34.780Z,14.45
2018-10-11T03:42:15.374Z,14.41
2018-10-11T03:42:55.924Z,14.4
2018-10-11T03:43:36.514Z,14.36
2018-10-11T03:44:17.086Z,14.41
2018-10-11T03:44:57.688Z,14.37
2018-10-11T03:45:38.284Z,14.37
2018-10-11T03:46:18.834Z,14.37
2018-10-11T03:46:59.414Z,14.37
2018-10-11T03:47:40.014Z,14.35
2018-10-11T03:48:20.590Z,14.4
2018-10-11T03:49:01.173Z,14.43
2018-10-11T03:49:41.732Z,14.35
2018-10-11T03:50:22.296Z,14.44
2018-10-11T03:51:02.903Z,14.33
2018-10-11T03:51:43.499Z,14.44
2018-10-11T03:52:24.059Z,14.43
2018-10-11T03:53:04.623Z,14.43
2018-10-11T03:53:45.201Z,14.33
2018-10-11T03:54:25.783Z,14.33
2018-10-11T03:55:06.343Z,14.37
2018-10-11T03:55:46.954Z,14.3
2018-10-11T03:56:27.551Z,14.33
2018-10-11T03:57:08.120Z,14.29
2018-10-11T03:57:48.684Z,14.33
2018-10-11T03:58:29.237Z,14.36
2018-10-11T03:59:09.798Z,14.36
2018-10-11T03:59:50.339Z,14.36
2018-10-11T04:00:31.039Z,14.37
2018-10-11T04:01:11.920Z,14.25
2018-10-11T04:01:53.827Z,14.32
2018-10-11T04:02:34.549Z,14.23
2018-10-11T04:03:15.870Z,14.23
2018-10-11T04:03:56.480Z,14.3
2018-10-11T04:04:37.058Z,14.28
2018-10-11T04:05:17.609Z,14.26
2018-10-11T04:05:58.163Z,14.23
2018-10-11T04:06:38.743Z,14.18
2018-10-11T04:07:19.405Z,14.29
2018-10-11T04:07:59.971Z,14.29
2018-10-11T04:08:40.680Z,14.32
2018-10-11T04:09:21.247Z,14.25
2018-10-11T04:10:02.292Z,14.25
2018-10-11T04:10:43.058Z,14.18
2018-10-11T04:11:24.211Z,14.3
2018-10-11T04:12:05.519Z,14.29
2018-10-11T04:12:47.719Z,14.2
2018-10-11T04:13:29.657Z,14.2
2018-10-11T04:14:12.748Z,14.33
2018-10-11T04:14:54.161Z,14.37
2018-10-11T04:15:34.689Z,14.59
2018-10-11T04:16:15.388Z,14.5
2018-10-11T04:16:55.977Z,14.54
2018-10-11T04:17:36.521Z,14.62
2018-10-11T04:18:17.113Z,14.68
2018-10-11T04:18:57.709Z,14.7
2018-10-11T04:19:38.489Z,14.85
2018-10-11T04:20:19.088Z,14.88
2018-10-11T04:20:59.685Z,14.94
2018-10-11T04:21:40.258Z,14.99
2018-10-11T04:22:20.896Z,15.11
2018-10-11T04:23:01.749Z,15.09
2018-10-11T04:23:42.430Z,15.24
2018-10-11T04:24:23.828Z,15.19
2018-10-11T04:25:04.488Z,15.29
2018-10-11T04:25:45.870Z,15.24
2018-10-11T04:26:26.583Z,15.18
2018-10-11T04:27:07.305Z,15.24
2018-10-11T04:27:47.862Z,15.14
2018-10-11T04:28:28.449Z,15.06
2018-10-11T04:29:09.029Z,15
2018-10-11T04:29:50.108Z,15.03
2018-10-11T04:30:31.569Z,14.86
2018-10-11T04:31:13.181Z,14.89
2018-10-11T04:31:53.838Z,14.85
2018-10-11T04:32:34.607Z,14.69
2018-10-11T04:33:15.227Z,14.69
2018-10-11T04:33:55.912Z,14.54
2018-10-11T04:34:36.948Z,14.55
2018-10-11T04:35:17.722Z,14.54
2018-10-11T04:35:58.588Z,14.6
2018-10-11T04:36:39.144Z,14.47
2018-10-11T04:37:19.705Z,14.48
2018-10-11T04:38:00.286Z,14.45
2018-10-11T04:38:40.870Z,14.59
2018-10-11T04:39:21.427Z,14.58
2018-10-11T04:40:02.222Z,14.51
2018-10-11T04:40:43.293Z,14.5
2018-10-11T04:41:23.862Z,14.4
2018-10-11T04:42:04.600Z,14.35
2018-10-11T04:42:45.448Z,14.35
2018-10-11T04:43:26.116Z,14.36
2018-10-11T04:44:06.985Z,14.23
2018-10-11T04:44:47.587Z,14.22
2018-10-11T04:45:28.424Z,14.25
2018-10-11T04:46:10.201Z,14.29
2018-10-11T04:46:52.188Z,14.3
2018-10-11T04:47:33.763Z,14.29
2018-10-11T04:48:18.338Z,14.18
2018-10-11T04:48:59.787Z,14.18
2018-10-11T04:49:40.516Z,14.14
2018-10-11T04:50:21.106Z,14.12
2018-10-11T04:51:02.965Z,14.17
2018-10-11T04:51:46.648Z,14.12
2018-10-11T04:52:29.566Z,14.14
2018-10-11T04:53:13.664Z,14.14
2018-10-11T04:53:54.700Z,14.11
2018-10-11T04:54:36.196Z,14.11
2018-10-11T04:55:17.394Z,14.12
2018-10-11T04:55:58.410Z,14.11
2018-10-11T04:56:39.407Z,14.04
2018-10-11T04:57:19.970Z,14.1
2018-10-11T04:58:00.557Z,14.11
2018-10-11T04:58:41.118Z,14.08
2018-10-11T04:59:21.717Z,14.11
2018-10-11T05:00:02.302Z,14.04
2018-10-11T05:00:42.921Z,14.05
2018-10-11T05:01:23.543Z,14.04
2018-10-11T05:02:04.115Z,14.1
2018-10-11T05:02:44.687Z,14.14
2018-10-11T05:03:25.238Z,14.1
2018-10-11T05:04:05.813Z,14.14
2018-10-11T05:04:46.404Z,14.14
2018-10-11T05:05:27.055Z,14.11
2018-10-11T05:06:07.554Z,14.11
2018-10-11T05:06:48.110Z,14.07
2018-10-11T05:07:28.671Z,14.14
2018-10-11T05:08:09.250Z,14.17
2018-10-11T05:08:49.833Z,14.12
2018-10-11T05:09:30.380Z,14.1
2018-10-11T05:10:10.935Z,14.1
2018-10-11T05:10:51.492Z,14.15
2018-10-11T05:11:32.079Z,14.12
2018-10-11T05:12:12.629Z,14.1
2018-10-11T05:12:53.251Z,14.17
2018-10-11T05:13:33.810Z,14.12
2018-10-11T05:14:14.383Z,14.12
2018-10-11T05:14:54.951Z,14.11
2018-10-11T05:15:35.558Z,14.12
2018-10-11T05:16:16.104Z,14.17
2018-10-11T05:16:56.684Z,14.17
2018-10-11T05:17:37.277Z,14.17
2018-10-11T05:18:17.844Z,14.12
2018-10-11T05:18:58.409Z,14.12
2018-10-11T05:19:38.973Z,14.15
2018-10-11T05:20:19.531Z,14.04
2018-10-11T05:21:01.631Z,14.15
2018-10-11T05:21:42.331Z,14.12
2018-10-11T05:22:22.884Z,14.2
2018-10-11T05:23:03.454Z,14.17
2018-10-11T05:23:44.027Z,14.08
2018-10-11T05:24:24.720Z,14.1
2018-10-11T05:25:05.643Z,14.1
2018-10-11T05:25:50.216Z,14.1
2018-10-11T05:26:35.190Z,14.12
2018-10-11T05:27:17.493Z,14.1
2018-10-11T05:28:02.652Z,14.15
2018-10-11T05:28:45.783Z,14.1
2018-10-11T05:29:27.685Z,14.15
2018-10-11T05:30:08.084Z,14.14
2018-10-11T05:30:48.664Z,14.17
2018-10-11T05:31:30.480Z,14.12
2018-10-11T05:32:11.370Z,14.2
2018-10-11T05:32:51.864Z,14.12
2018-10-11T05:33:32.434Z,14.12
2018-10-11T05:34:13.000Z,14.12
2018-10-11T05:34:54.235Z,14.14
2018-10-11T05:35:34.881Z,14.12
2018-10-11T05:36:15.546Z,14.12
2018-10-11T05:36:56.095Z,14.1
2018-10-11T05:37:36.693Z,14.15
2018-10-11T05:38:17.359Z,14.25
2018-10-11T05:38:57.912Z,14.11
2018-10-11T05:39:38.503Z,14.1
2018-10-11T05:40:19.062Z,14.11
2018-10-11T05:40:59.626Z,14.08
2018-10-11T05:41:40.173Z,14.11
2018-10-11T05:42:20.731Z,14.14
2018-10-11T05:43:01.332Z,14.1
2018-10-11T05:43:42.706Z,14.17
2018-10-11T05:44:23.287Z,14.18
2018-10-11T05:45:03.827Z,14.07
2018-10-11T05:45:44.393Z,14.17
2018-10-11T05:46:24.947Z,14.17
2018-10-11T05:47:05.503Z,14.11
2018-10-11T05:47:46.103Z,14.12
2018-10-11T05:48:26.686Z,14.15
2018-10-11T05:49:07.288Z,14.18
2018-10-11T05:49:47.885Z,14.18
2018-10-11T05:50:28.486Z,14.25
2018-10-11T05:51:09.047Z,14.26
2018-10-11T05:51:49.610Z,14.29
2018-10-11T05:52:30.203Z,14.32
2018-10-11T05:53:10.758Z,14.36
2018-10-11T05:53:51.313Z,14.37
2018-10-11T05:54:31.868Z,14.32
2018-10-11T05:55:12.490Z,14.36
2018-10-11T05:55:53.047Z,14.28
2018-10-11T05:56:33.663Z,14.35
2018-10-11T05:57:14.161Z,14.33
2018-10-11T05:57:54.741Z,14.37
2018-10-11T05:58:35.337Z,14.35
2018-10-11T05:59:15.965Z,14.32
2018-10-11T05:59:56.520Z,14.41
2018-10-11T06:00:37.172Z,14.36
2018-10-11T06:01:17.771Z,14.36
2018-10-11T06:01:58.321Z,14.37
2018-10-11T06:02:38.903Z,14.36
2018-10-11T06:03:19.500Z,14.36
2018-10-11T06:04:00.113Z,14.43
2018-10-11T06:04:40.665Z,14.43
2018-10-11T06:05:21.246Z,14.36
2018-10-11T06:06:01.811Z,14.35
2018-10-11T06:06:42.489Z,14.41
2018-10-11T06:07:23.076Z,14.35
2018-10-11T06:08:03.655Z,14.44
2018-10-11T06:08:44.188Z,14.37
2018-10-11T06:09:24.778Z,14.36
2018-10-11T06:10:05.343Z,14.48
2018-10-11T06:10:45.905Z,14.36
2018-10-11T06:11:26.459Z,14.48
2018-10-11T06:12:07.076Z,14.36
2018-10-11T06:12:47.569Z,14.41
2018-10-11T06:13:28.149Z,14.35
2018-10-11T06:14:08.700Z,14.33
2018-10-11T06:14:49.286Z,14.44
2018-10-11T06:15:31.156Z,14.4
2018-10-11T06:16:11.693Z,14.36
2018-10-11T06:16:52.281Z,14.32
2018-10-11T06:17:33.013Z,14.4
2018-10-11T06:18:13.590Z,14.33
2018-10-11T06:18:54.148Z,14.36
2018-10-11T06:19:34.691Z,14.41
2018-10-11T06:20:15.312Z,14.37
2018-10-11T06:20:55.894Z,14.3
2018-10-11T06:21:36.464Z,14.35
2018-10-11T06:22:17.062Z,14.4
2018-10-11T06:22:57.643Z,14.35
2018-10-11T06:23:38.192Z,14.35
2018-10-11T06:24:18.764Z,14.37
2018-10-11T06:24:59.332Z,14.36
2018-10-11T06:25:39.916Z,14.36
2018-10-11T06:26:20.570Z,14.35
2018-10-11T06:27:01.134Z,14.32
2018-10-11T06:27:41.844Z,14.35
2018-10-11T06:28:22.395Z,14.33
2018-10-11T06:29:02.954Z,14.33
2018-10-11T06:29:43.575Z,14.33
2018-10-11T06:30:24.249Z,14.32
2018-10-11T06:31:04.702Z,14.32
2018-10-11T06:31:45.283Z,14.36
2018-10-11T06:32:25.865Z,14.4
2018-10-11T06:33:06.421Z,14.35
2018-10-11T06:33:46.965Z,14.41
2018-10-11T06:34:27.524Z,14.37
2018-10-11T06:35:08.098Z,14.41
2018-10-11T06:35:48.760Z,14.41
2018-10-11T06:36:29.371Z,14.44
2018-10-11T06:37:09.823Z,14.4
2018-10-11T06:37:51.091Z,14.44
2018-10-11T06:38:31.685Z,14.4
2018-10-11T06:39:12.240Z,14.51
2018-10-11T06:39:52.808Z,14.58
2018-10-11T06:40:33.383Z,14.48
2018-10-11T06:41:13.941Z,14.47
2018-10-11T06:41:54.597Z,14.58
2018-10-11T06:42:35.151Z,14.54
2018-10-11T06:43:15.648Z,14.44
2018-10-11T06:43:56.215Z,14.5
2018-10-11T06:44:36.803Z,14.51
2018-10-11T06:45:17.379Z,14.58
2018-10-11T06:45:57.994Z,14.53
2018-10-11T06:46:38.559Z,14.59
2018-10-11T06:47:19.124Z,14.47
2018-10-11T06:47:59.678Z,14.48
2018-10-11T06:48:40.268Z,14.5
2018-10-11T06:49:20.793Z,14.53
2018-10-11T06:50:01.506Z,14.5
2018-10-11T06:50:41.916Z,14.58
2018-10-11T06:51:22.522Z,14.53
2018-10-11T06:52:03.116Z,14.55
2018-10-11T06:52:43.677Z,14.59
2018-10-11T06:53:24.238Z,14.6
2018-10-11T06:54:04.806Z,14.6
2018-10-11T06:54:45.390Z,14.58
2018-10-11T06:55:25.954Z,14.6
2018-10-11T06:56:06.559Z,14.66
2018-10-11T06:56:47.091Z,14.65
2018-10-11T06:57:27.644Z,14.68
2018-10-11T06:58:08.202Z,14.65
2018-10-11T06:58:48.773Z,14.73
2018-10-11T06:59:29.342Z,14.72
2018-10-11T07:00:09.888Z,14.69
2018-10-11T07:00:50.451Z,14.68
2018-10-11T07:01:31.026Z,14.66
2018-10-11T07:02:11.602Z,14.79
2018-10-11T07:02:52.160Z,14.81
2018-10-11T07:03:32.726Z,14.79
2018-10-11T07:04:13.292Z,14.84
2018-10-11T07:04:53.847Z,14.81
2018-10-11T07:05:34.402Z,14.88
2018-10-11T07:06:14.973Z,14.91
2018-10-11T07:06:55.545Z,14.81
2018-10-11T07:07:36.138Z,14.96
2018-10-11T07:08:16.704Z,14.92
2018-10-11T07:08:57.265Z,14.97
2018-10-11T07:09:37.815Z,15.03
2018-10-11T07:10:18.501Z,15.04
2018-10-11T07:10:59.049Z,15.02
2018-10-11T07:11:39.610Z,15.04
2018-10-11T07:12:20.198Z,15.07
2018-10-11T07:13:00.776Z,15.09
2018-10-11T07:13:41.404Z,15.15
2018-10-11T07:14:22.013Z,15.11
2018-10-11T07:15:02.619Z,15.19
2018-10-11T07:15:43.170Z,15.17
2018-10-11T07:16:23.726Z,15.24
2018-10-11T07:17:04.298Z,15.25
2018-10-11T07:17:44.866Z,15.21
2018-10-11T07:18:25.431Z,15.28
2018-10-11T07:19:05.986Z,15.31
2018-10-11T07:19:46.551Z,15.29
2018-10-11T07:20:27.112Z,15.29
2018-10-11T07:21:07.674Z,15.36
2018-10-11T07:21:48.221Z,15.36
2018-10-11T07:22:28.785Z,15.27
2018-10-11T07:23:09.348Z,15.44
2018-10-11T07:23:49.939Z,15.44
2018-10-11T07:24:30.547Z,15.49
2018-10-11T07:25:11.131Z,15.55
2018-10-11T07:25:51.763Z,15.61
2018-10-11T07:26:32.283Z,15.75
2018-10-11T07:27:12.834Z,15.79
2018-10-11T07:27:53.394Z,15.97
2018-10-11T07:28:34.117Z,16.05
2018-10-11T07:29:14.714Z,16.35
2018-10-11T07:29:55.284Z,16.64
2018-10-11T07:30:35.951Z,16.79
2018-10-11T07:31:16.521Z,17.2
2018-10-11T07:31:57.093Z,17.41
2018-10-11T07:32:37.645Z,17.72
2018-10-11T07:33:18.249Z,17.98
2018-10-11T07:33:58.803Z,18.23
2018-10-11T07:34:39.542Z,18.49
2018-10-11T07:35:20.095Z,18.77
2018-10-11T07:36:00.501Z,18.95
2018-10-11T07:36:41.082Z,19.21
2018-10-11T07:37:21.661Z,19.36
2018-10-11T07:38:02.254Z,19.59
2018-10-11T07:38:42.890Z,19.81
2018-10-11T07:39:23.487Z,19.91
2018-10-11T07:40:04.653Z,19.96
2018-10-11T07:40:45.483Z,20.1
2018-10-11T07:41:26.137Z,20.29
2018-10-11T07:42:06.794Z,20.48
2018-10-11T07:42:47.360Z,20.63
2018-10-11T07:43:28.642Z,20.87
2018-10-11T07:44:09.383Z,21.11
2018-10-11T07:44:49.965Z,21.12
2018-10-11T07:45:30.551Z,21.25
2018-10-11T07:46:11.675Z,21.46
2018-10-11T07:46:52.503Z,21.51
2018-10-11T07:47:33.060Z,21.51
2018-10-11T07:48:13.723Z,21.51
2018-10-11T07:48:54.317Z,21.66
2018-10-11T07:49:34.882Z,21.79
2018-10-11T07:50:15.444Z,21.77
2018-10-11T07:50:56.018Z,21.92
2018-10-11T07:51:36.632Z,22.06
2018-10-11T07:52:17.216Z,22.11
2018-10-11T07:52:57.873Z,22.18
2018-10-11T07:53:38.393Z,22.25
2018-10-11T07:54:18.963Z,22.33
2018-10-11T07:54:59.524Z,22.32
2018-10-11T07:55:40.372Z,22.36
2018-10-11T07:56:20.897Z,22.45
2018-10-11T07:57:01.472Z,22.6
2018-10-11T07:57:42.040Z,22.62
2018-10-11T07:58:22.903Z,22.59
2018-10-11T07:59:03.483Z,22.66
2018-10-11T07:59:44.071Z,22.72
2018-10-11T08:00:24.662Z,22.81
2018-10-11T08:01:05.310Z,22.99
2018-10-11T08:01:45.929Z,23.06
2018-10-11T08:02:26.431Z,23.1
2018-10-11T08:03:07.016Z,23.08
2018-10-11T08:03:48.514Z,22.98
2018-10-11T08:04:28.464Z,22.85
2018-10-11T08:05:09.153Z,22.93
2018-10-11T08:05:49.989Z,23.05
2018-10-11T08:06:30.603Z,23.06
2018-10-11T08:07:11.264Z,23.06
2018-10-11T08:07:51.730Z,23.08
2018-10-11T08:08:33.603Z,23.12
2018-10-11T08:09:14.147Z,23.12
2018-10-11T08:09:54.780Z,23.31
2018-10-11T08:10:35.501Z,23.31
2018-10-11T08:11:16.003Z,23.34
2018-10-11T08:11:56.698Z,23.41
2018-10-11T08:12:37.089Z,23.48
2018-10-11T08:13:17.732Z,23.41
2018-10-11T08:13:58.311Z,23.37
2018-10-11T08:14:38.871Z,23.32
2018-10-11T08:15:19.462Z,23.28
2018-10-11T08:16:00.095Z,23.28
2018-10-11T08:16:42.801Z,23.41
2018-10-11T08:17:26.783Z,23.44
2018-10-11T08:18:11.408Z,23.4
2018-10-11T08:18:53.575Z,23.41
2018-10-11T08:19:35.930Z,23.32
2018-10-11T08:20:17.743Z,23.46
2018-10-11T08:20:59.824Z,23.34
2018-10-11T08:21:42.997Z,23.46
2018-10-11T08:22:25.360Z,23.46
2018-10-11T08:23:09.262Z,23.34
2018-10-11T08:23:51.195Z,23.34
2018-10-11T08:24:32.415Z,23.39
2018-10-11T08:25:17.173Z,23.34
2018-10-11T08:25:59.568Z,23.32
2018-10-11T08:26:41.255Z,23.21
2018-10-11T08:27:24.563Z,23.09
2018-10-11T08:28:07.805Z,22.93
2018-10-11T08:28:51.059Z,22.76
2018-10-11T08:29:32.633Z,22.62
2018-10-11T08:30:15.512Z,22.57
2018-10-11T08:30:57.769Z,22.5
2018-10-11T08:31:39.114Z,22.48
2018-10-11T08:32:20.712Z,22.39
2018-10-11T08:33:02.806Z,22.36
2018-10-11T08:33:44.111Z,22.26
2018-10-11T08:34:26.784Z,22.22
2018-10-11T08:36:22.907Z,22
2018-10-11T08:37:03.973Z,22.04
2018-10-11T08:37:44.965Z,21.93
2018-10-11T08:38:25.447Z,21.85
2018-10-11T08:39:06.080Z,21.83
2018-10-11T08:39:49.415Z,21.83
2018-10-11T08:40:32.768Z,21.76
2018-10-11T08:41:13.540Z,21.67
2018-10-11T08:41:54.115Z,21.64
2018-10-11T08:42:34.906Z,21.57
2018-10-11T08:43:16.403Z,21.6
2018-10-11T08:44:01.440Z,21.42
2018-10-11T08:44:43.702Z,21.45
2018-10-11T08:45:25.588Z,21.27
2018-10-11T08:46:06.862Z,21.25
2018-10-11T08:46:47.525Z,21.22
2018-10-11T08:47:28.093Z,21.18
2018-10-11T08:48:08.657Z,21.09